createdAt,value
2019-02-12T00:00:25.264Z,0.7
2019-02-12T00:01:25.545Z,0.7
2019-02-12T00:02:25.571Z,0.7
2019-02-12T00:03:25.326Z,0.7
2019-02-12T00:04:25.395Z,0.7
2019-02-12T00:05:25.349Z,0.7
2019-02-12T00:06:25.524Z,0.7
2019-02-12T00:07:25.382Z,0.7
2019-02-12T00:08:25.327Z,0.6
2019-02-12T00:09:25.240Z,0.6
2019-02-12T00:10:25.550Z,0.6
2019-02-12T00:11:25.367Z,0.6
2019-02-12T00:12:25.265Z,0.6
2019-02-12T00:13:25.301Z,0.6
2019-02-12T00:14:25.645Z,0.6
2019-02-12T00:15:25.568Z,0.7
2019-02-12T00:16:25.611Z,0.7
2019-02-12T00:17:25.338Z,0.7
2019-02-12T00:18:25.341Z,0.8
2019-02-12T00:19:25.506Z,0.8
2019-02-12T00:20:25.597Z,0.8
2019-02-12T00:21:25.327Z,0.8
2019-02-12T00:22:25.601Z,0.8
2019-02-12T00:23:25.682Z,0.9
2019-02-12T00:24:25.576Z,0.9
2019-02-12T00:25:25.382Z,0.9
2019-02-12T00:26:25.606Z,0.9
2019-02-12T00:27:25.397Z,0.9
2019-02-12T00:28:25.387Z,0.8
2019-02-12T00:29:25.385Z,0.8
2019-02-12T00:30:25.343Z,0.9
2019-02-12T00:31:25.336Z,0.9
2019-02-12T00:32:25.358Z,0.9
2019-02-12T00:33:41.595Z,0.9
2019-02-12T00:34:25.472Z,0.9
2019-02-12T00:35:25.456Z,0.9
2019-02-12T00:36:25.404Z,0.8
2019-02-12T00:37:25.548Z,0.8
2019-02-12T00:38:25.427Z,0.8
2019-02-12T00:39:25.673Z,0.8
2019-02-12T00:40:25.615Z,0.8
2019-02-12T00:41:25.400Z,0.8
2019-02-12T00:42:25.390Z,0.8
2019-02-12T00:43:25.745Z,0.8
2019-02-12T00:44:25.911Z,0.8
2019-02-12T00:45:25.400Z,0.8
2019-02-12T00:46:25.703Z,0.9
2019-02-12T00:47:25.409Z,0.9
2019-02-12T00:48:25.426Z,0.9
2019-02-12T00:49:25.401Z,0.9
2019-02-12T00:50:25.431Z,0.9
2019-02-12T00:51:26.703Z,1.0
2019-02-12T00:52:25.478Z,1.0
2019-02-12T00:53:25.470Z,1.0
2019-02-12T00:54:25.539Z,1.0
2019-02-12T00:55:25.693Z,1.0
2019-02-12T00:56:25.454Z,1.0
2019-02-12T00:57:25.511Z,1.0
2019-02-12T00:58:25.479Z,1.1
2019-02-12T00:59:25.485Z,1.1
2019-02-12T01:00:25.410Z,1.1
2019-02-12T01:03:06.543Z,1.0
2019-02-12T01:03:15.455Z,1.0
2019-02-12T01:04:15.643Z,0.9
2019-02-12T01:05:15.461Z,0.9
2019-02-12T01:06:15.784Z,1.0
2019-02-12T01:07:15.700Z,1.0
2019-02-12T01:08:15.420Z,1.0
2019-02-12T01:09:15.680Z,1.0
2019-02-12T01:10:15.433Z,1.0
2019-02-12T01:11:15.428Z,0.9
2019-02-12T01:12:15.441Z,0.9
2019-02-12T01:13:15.404Z,0.9
2019-02-12T01:14:15.371Z,0.8
2019-02-12T01:15:15.313Z,0.8
2019-02-12T01:16:15.458Z,0.9
2019-02-12T01:17:15.502Z,0.9
2019-02-12T01:18:15.449Z,0.9
2019-02-12T01:19:15.450Z,0.8
2019-02-12T01:20:15.600Z,0.8
2019-02-12T01:21:25.875Z,0.7
2019-02-12T01:22:15.553Z,0.7
2019-02-12T01:23:16.369Z,0.7
2019-02-12T01:24:15.443Z,0.7
2019-02-12T01:25:15.384Z,0.7
2019-02-12T01:26:15.734Z,0.7
2019-02-12T01:27:15.428Z,0.6
2019-02-12T01:28:16.850Z,0.6
2019-02-12T01:29:15.477Z,0.7
2019-02-12T01:30:16.752Z,0.7
2019-02-12T01:31:15.474Z,0.7
2019-02-12T01:32:15.477Z,0.7
2019-02-12T01:33:15.765Z,0.7
2019-02-12T01:34:15.564Z,0.7
2019-02-12T01:35:15.480Z,0.7
2019-02-12T01:36:15.509Z,0.7
2019-02-12T01:37:15.536Z,0.7
2019-02-12T01:38:15.478Z,0.7
2019-02-12T01:39:15.503Z,0.5
2019-02-12T01:40:15.454Z,0.5
2019-02-12T01:41:43.775Z,0.5
2019-02-12T01:42:15.470Z,0.5
2019-02-12T01:43:15.762Z,0.5
2019-02-12T01:44:15.500Z,0.5
2019-02-12T01:45:15.489Z,0.5
2019-02-12T01:46:15.819Z,0.5
2019-02-12T01:47:15.498Z,0.4
2019-02-12T01:48:15.501Z,0.4
2019-02-12T01:49:15.802Z,0.4
2019-02-12T01:50:15.579Z,0.4
2019-02-12T01:51:15.885Z,0.4
2019-02-12T01:52:15.494Z,0.3
2019-02-12T01:53:15.606Z,0.3
2019-02-12T01:54:15.632Z,0.3
2019-02-12T01:55:15.858Z,0.3
2019-02-12T01:56:15.638Z,0.3
2019-02-12T01:57:15.763Z,0.3
2019-02-12T01:58:15.523Z,0.3
2019-02-12T01:59:15.569Z,0.3
2019-02-12T02:00:15.594Z,0.3
2019-02-12T02:01:16.147Z,0.3
2019-02-12T02:02:15.638Z,0.2
2019-02-12T02:03:15.774Z,0.2
2019-02-12T02:04:15.589Z,0.2
2019-02-12T02:05:15.596Z,0.2
2019-02-12T02:06:15.659Z,0.2
2019-02-12T02:07:16.452Z,0.1
2019-02-12T02:08:15.544Z,0.1
2019-02-12T02:19:03.548Z,0.1
2019-02-12T02:19:16.732Z,0.1
2019-02-12T02:20:17.946Z,0.2
2019-02-12T02:21:17.735Z,0.2
2019-02-12T02:22:18.530Z,0.1
2019-02-12T02:23:17.746Z,0.1
2019-02-12T02:24:18.017Z,0.1
2019-02-12T02:25:17.796Z,0.2
2019-02-12T02:26:17.787Z,0.2
2019-02-12T02:27:18.577Z,0.2
2019-02-12T02:28:17.866Z,0.2
2019-02-12T02:29:17.961Z,0.2
2019-02-12T02:30:18.246Z,0.1
2019-02-12T02:31:18.052Z,0.1
2019-02-12T02:32:17.877Z,0.1
2019-02-12T02:33:17.805Z,0.2
2019-02-12T02:34:18.284Z,0.2
2019-02-12T02:37:21.642Z,0.2
2019-02-12T02:38:21.874Z,0.3
2019-02-12T02:39:21.450Z,0.3
2019-02-12T02:40:21.583Z,0.3
2019-02-12T02:41:21.618Z,0.3
2019-02-12T02:42:21.561Z,0.3
2019-02-12T02:43:21.526Z,0.3
2019-02-12T02:44:21.654Z,0.3
2019-02-12T02:45:21.612Z,0.3
2019-02-12T02:46:21.822Z,0.3
2019-02-12T02:47:21.897Z,0.3
2019-02-12T02:48:22.527Z,0.4
2019-02-12T02:49:22.734Z,0.4
2019-02-12T02:50:21.706Z,0.3
2019-02-12T02:51:21.650Z,0.3
2019-02-12T02:52:21.471Z,0.3
2019-02-12T02:53:21.562Z,0.4
2019-02-12T02:54:21.705Z,0.4
2019-02-12T02:55:22.195Z,0.4
2019-02-12T02:56:22.426Z,0.4
2019-02-12T02:57:31.550Z,0.4
2019-02-12T02:58:21.599Z,0.4
2019-02-12T02:59:21.644Z,0.4
2019-02-12T03:00:21.668Z,0.4
2019-02-12T03:01:21.593Z,0.4
2019-02-12T03:02:22.544Z,0.4
2019-02-12T03:03:21.691Z,0.4
2019-02-12T03:04:21.896Z,0.4
2019-02-12T03:05:21.925Z,0.4
2019-02-12T03:06:21.758Z,0.4
2019-02-12T03:07:23.988Z,0.4
2019-02-12T03:08:21.930Z,0.4
2019-02-12T03:09:21.660Z,0.4
2019-02-12T03:10:21.855Z,0.4
2019-02-12T03:11:21.518Z,0.4
2019-02-12T03:12:21.589Z,0.4
2019-02-12T03:13:22.380Z,0.4
2019-02-12T03:14:21.861Z,0.4
2019-02-12T03:15:21.673Z,0.4
2019-02-12T03:16:21.669Z,0.5
2019-02-12T03:19:27.159Z,0.5
2019-02-12T03:20:26.408Z,0.5
2019-02-12T03:21:26.792Z,0.5
2019-02-12T03:22:26.356Z,0.5
2019-02-12T03:23:26.360Z,0.5
2019-02-12T03:24:26.526Z,0.5
2019-02-12T03:25:26.449Z,0.5
2019-02-12T03:26:26.495Z,0.5
2019-02-12T03:27:26.404Z,0.5
2019-02-12T03:28:27.021Z,0.5
2019-02-12T03:29:26.574Z,0.5
2019-02-12T03:30:26.446Z,0.5
2019-02-12T03:31:26.754Z,0.5
2019-02-12T03:32:26.732Z,0.5
2019-02-12T03:33:26.864Z,0.5
2019-02-12T03:34:26.401Z,0.5
2019-02-12T03:35:26.419Z,0.5
2019-02-12T03:36:26.424Z,0.5
2019-02-12T03:37:27.130Z,0.5
2019-02-12T03:38:27.408Z,0.5
2019-02-12T03:39:26.723Z,0.5
2019-02-12T03:40:26.512Z,0.5
2019-02-12T03:41:26.383Z,0.6
2019-02-12T03:42:26.394Z,0.6
2019-02-12T03:43:26.431Z,0.6
2019-02-12T03:44:26.545Z,0.6
2019-02-12T03:45:54.814Z,0.6
2019-02-12T03:46:26.413Z,0.5
2019-02-12T03:47:26.696Z,0.5
2019-02-12T03:48:26.591Z,0.5
2019-02-12T03:49:26.657Z,0.5
2019-02-12T03:50:26.547Z,0.5
2019-02-12T03:51:27.285Z,0.5
2019-02-12T03:52:26.458Z,0.5
2019-02-12T03:53:26.384Z,0.5
2019-02-12T03:54:26.443Z,0.5
2019-02-12T03:55:26.465Z,0.5
2019-02-12T03:56:27.631Z,0.5
2019-02-12T03:57:26.468Z,0.5
2019-02-12T03:58:26.384Z,0.5
2019-02-12T03:59:26.689Z,0.5
2019-02-12T04:00:26.365Z,0.5
2019-02-12T04:01:27.330Z,0.6
2019-02-12T04:02:26.498Z,0.6
2019-02-12T04:03:26.812Z,0.6
2019-02-12T04:04:26.714Z,0.6
2019-02-12T04:05:26.878Z,0.6
2019-02-12T04:06:26.855Z,0.6
2019-02-12T04:07:27.901Z,0.7
2019-02-12T04:08:26.601Z,0.7
2019-02-12T04:09:26.539Z,0.7
2019-02-12T04:10:27.932Z,0.7
2019-02-12T04:11:26.546Z,0.7
2019-02-12T04:12:26.762Z,0.7
2019-02-12T04:13:26.794Z,0.7
2019-02-12T04:14:27.178Z,0.7
2019-02-12T04:15:26.592Z,0.7
2019-02-12T04:16:27.674Z,0.7
2019-02-12T04:17:26.440Z,0.7
2019-02-12T04:18:26.590Z,0.7
2019-02-12T04:19:26.471Z,0.7
2019-02-12T04:20:26.458Z,0.7
2019-02-12T04:21:27.139Z,0.7
2019-02-12T04:22:26.900Z,0.7
2019-02-12T04:23:26.493Z,0.7
2019-02-12T04:24:26.693Z,0.7
2019-02-12T04:25:26.546Z,0.7
2019-02-12T04:26:26.500Z,0.7
2019-02-12T04:27:26.475Z,0.7
2019-02-12T04:28:27.536Z,0.7
2019-02-12T04:29:26.563Z,0.7
2019-02-12T04:30:26.609Z,0.7
2019-02-12T04:31:27.399Z,0.7
2019-02-12T04:32:26.820Z,0.7
2019-02-12T04:33:26.541Z,0.7
2019-02-12T04:34:26.601Z,0.7
2019-02-12T04:35:26.481Z,0.7
2019-02-12T04:36:26.873Z,0.7
2019-02-12T04:37:26.570Z,0.6
2019-02-12T04:38:38.528Z,0.6
2019-02-12T04:39:27.196Z,0.6
2019-02-12T04:40:26.525Z,0.5
2019-02-12T04:41:26.829Z,0.5
2019-02-12T04:42:27.031Z,0.5
2019-02-12T04:43:26.749Z,0.5
2019-02-12T04:44:26.538Z,0.5
2019-02-12T04:45:26.500Z,0.6
2019-02-12T04:46:26.685Z,0.6
2019-02-12T04:47:26.462Z,0.5
2019-02-12T04:48:26.639Z,0.5
2019-02-12T04:49:26.574Z,0.5
2019-02-12T04:50:26.883Z,0.5
2019-02-12T04:51:26.756Z,0.5
2019-02-12T04:52:31.588Z,0.5
2019-02-12T04:53:26.490Z,0.5
2019-02-12T04:54:26.570Z,0.5
2019-02-12T04:55:26.764Z,0.5
2019-02-12T04:56:26.652Z,0.5
2019-02-12T04:57:26.553Z,0.5
2019-02-12T04:58:26.632Z,0.5
2019-02-12T04:59:26.540Z,0.5
2019-02-12T05:00:26.900Z,0.5
2019-02-12T05:01:26.547Z,0.5
2019-02-12T05:02:26.864Z,0.5
2019-02-12T05:03:26.855Z,0.5
2019-02-12T05:04:26.525Z,0.5
2019-02-12T05:05:26.792Z,0.5
2019-02-12T05:06:26.607Z,0.5
2019-02-12T05:07:26.521Z,0.5
2019-02-12T05:08:26.589Z,0.5
2019-02-12T05:09:26.608Z,0.5
2019-02-12T05:10:27.431Z,0.5
2019-02-12T05:11:26.556Z,0.5
2019-02-12T05:12:26.646Z,0.5
2019-02-12T05:13:26.496Z,0.5
2019-02-12T05:14:26.677Z,0.5
2019-02-12T05:15:26.633Z,0.6
2019-02-12T05:16:26.608Z,0.6
2019-02-12T05:17:26.590Z,0.6
2019-02-12T05:18:26.638Z,0.6
2019-02-12T05:19:26.568Z,0.6
2019-02-12T05:20:26.658Z,0.6
2019-02-12T05:21:26.568Z,0.6
2019-02-12T05:22:26.910Z,0.6
2019-02-12T05:23:26.550Z,0.6
2019-02-12T05:24:26.679Z,0.6
2019-02-12T05:25:26.678Z,0.6
2019-02-12T05:26:26.642Z,0.6
2019-02-12T05:27:26.653Z,0.6
2019-02-12T05:28:26.611Z,0.6
2019-02-12T05:29:26.701Z,0.6
2019-02-12T05:30:27.913Z,0.7
2019-02-12T05:31:26.686Z,0.7
2019-02-12T05:32:26.673Z,0.7
2019-02-12T05:33:26.718Z,0.6
2019-02-12T05:34:26.610Z,0.6
2019-02-12T05:35:26.702Z,0.6
2019-02-12T05:36:26.653Z,0.6
2019-02-12T05:37:26.852Z,0.6
2019-02-12T05:38:26.768Z,0.6
2019-02-12T05:39:26.719Z,0.6
2019-02-12T05:40:26.841Z,0.6
2019-02-12T05:41:26.804Z,0.7
2019-02-12T05:42:26.770Z,0.7
2019-02-12T05:43:26.874Z,0.6
2019-02-12T05:44:27.146Z,0.6
2019-02-12T05:45:26.704Z,0.6
2019-02-12T05:46:26.703Z,0.6
2019-02-12T05:47:26.724Z,0.6
2019-02-12T05:48:26.696Z,0.6
2019-02-12T05:49:26.667Z,0.6
2019-02-12T05:50:26.763Z,0.6
2019-02-12T05:51:26.700Z,0.6
2019-02-12T05:52:26.950Z,0.6
2019-02-12T05:53:26.697Z,0.6
2019-02-12T05:54:26.690Z,0.6
2019-02-12T05:55:26.713Z,0.6
2019-02-12T05:56:26.680Z,0.6
2019-02-12T05:57:27.709Z,0.6
2019-02-12T05:58:26.752Z,0.5
2019-02-12T05:59:26.687Z,0.5
2019-02-12T06:00:28.034Z,0.5
2019-02-12T06:01:26.723Z,0.6
2019-02-12T06:02:26.750Z,0.6
2019-02-12T06:03:26.777Z,0.6
2019-02-12T06:04:26.761Z,0.6
2019-02-12T06:05:26.654Z,0.6
2019-02-12T06:06:26.659Z,0.6
2019-02-12T06:07:26.679Z,0.6
2019-02-12T06:08:26.997Z,0.6
2019-02-12T06:09:26.809Z,0.6
2019-02-12T06:10:26.712Z,0.6
2019-02-12T06:11:27.490Z,0.6
2019-02-12T06:12:27.001Z,0.6
2019-02-12T06:13:26.802Z,0.6
2019-02-12T06:14:26.665Z,0.7
2019-02-12T06:15:27.823Z,0.7
2019-02-12T06:16:26.986Z,0.6
2019-02-12T06:17:26.741Z,0.6
2019-02-12T06:18:26.740Z,0.6
2019-02-12T06:19:26.732Z,0.6
2019-02-12T06:20:26.784Z,0.6
2019-02-12T06:21:27.020Z,0.7
2019-02-12T06:22:26.718Z,0.7
2019-02-12T06:23:26.774Z,0.7
2019-02-12T06:24:26.742Z,0.7
2019-02-12T06:25:26.985Z,0.7
2019-02-12T06:26:26.747Z,0.7
2019-02-12T06:27:26.974Z,0.7
2019-02-12T06:28:26.980Z,0.7
2019-02-12T06:29:26.788Z,0.7
2019-02-12T06:30:26.809Z,0.7
2019-02-12T06:31:26.809Z,0.7
2019-02-12T06:32:26.938Z,0.7
2019-02-12T06:33:26.820Z,0.7
2019-02-12T06:34:26.759Z,0.7
2019-02-12T06:35:26.816Z,0.7
2019-02-12T06:36:26.978Z,0.7
2019-02-12T06:37:26.799Z,0.7
2019-02-12T06:38:26.831Z,0.7
2019-02-12T06:39:26.961Z,0.7
2019-02-12T06:40:26.830Z,0.7
2019-02-12T06:41:26.807Z,0.7
2019-02-12T06:42:26.943Z,0.7
2019-02-12T06:43:26.907Z,0.7
2019-02-12T06:44:27.054Z,0.7
2019-02-12T06:45:26.804Z,0.7
2019-02-12T06:46:26.999Z,0.7
2019-02-12T06:47:27.300Z,0.7
2019-02-12T06:48:26.977Z,0.7
2019-02-12T06:49:26.756Z,0.7
2019-02-12T06:50:26.750Z,0.7
2019-02-12T06:51:26.822Z,0.7
2019-02-12T06:52:27.027Z,0.7
2019-02-12T06:53:26.934Z,0.7
2019-02-12T06:54:26.852Z,0.7
2019-02-12T06:55:26.763Z,0.7
2019-02-12T06:56:26.782Z,0.7
2019-02-12T06:57:26.844Z,0.7
2019-02-12T06:58:27.027Z,0.7
2019-02-12T06:59:27.048Z,0.7
2019-02-12T07:00:26.865Z,0.7
2019-02-12T07:01:26.768Z,0.7
2019-02-12T07:02:27.008Z,0.7
2019-02-12T07:03:27.021Z,0.7
2019-02-12T07:04:26.847Z,0.7
2019-02-12T07:05:26.848Z,0.7
2019-02-12T07:06:26.818Z,0.7
2019-02-12T07:07:26.889Z,0.8
2019-02-12T07:08:26.888Z,0.8
2019-02-12T07:09:26.844Z,0.8
2019-02-12T07:10:26.844Z,0.8
2019-02-12T07:11:26.790Z,0.8
2019-02-12T07:12:26.830Z,0.7
2019-02-12T07:13:26.801Z,0.7
2019-02-12T07:14:27.085Z,0.7
2019-02-12T07:15:27.050Z,0.8
2019-02-12T07:16:26.859Z,0.8
2019-02-12T07:17:26.836Z,0.8
2019-02-12T07:18:26.773Z,0.8
2019-02-12T07:19:26.914Z,0.8
2019-02-12T07:20:26.897Z,0.9
2019-02-12T07:21:26.861Z,0.9
2019-02-12T07:22:28.020Z,0.9
2019-02-12T07:23:26.893Z,0.9
2019-02-12T07:24:27.093Z,0.9
2019-02-12T07:25:26.937Z,0.9
2019-02-12T07:26:27.085Z,0.9
2019-02-12T07:27:26.843Z,1.0
2019-02-12T07:28:26.872Z,1.0
2019-02-12T07:29:26.851Z,1.0
2019-02-12T07:30:26.862Z,0.9
2019-02-12T07:31:27.081Z,0.9
2019-02-12T07:32:26.845Z,1.0
2019-02-12T07:33:27.183Z,1.0
2019-02-12T07:34:26.908Z,1.0
2019-02-12T07:35:26.922Z,0.9
2019-02-12T07:36:27.177Z,0.9
2019-02-12T07:37:26.900Z,0.9
2019-02-12T07:38:26.839Z,0.9
2019-02-12T07:39:27.159Z,0.9
2019-02-12T07:40:26.882Z,0.9
2019-02-12T07:41:26.900Z,0.9
2019-02-12T07:42:27.053Z,0.9
2019-02-12T07:43:26.808Z,1.0
2019-02-12T07:44:26.872Z,1.0
2019-02-12T07:45:26.851Z,1.0
2019-02-12T07:46:27.140Z,1.0
2019-02-12T07:47:26.882Z,1.0
2019-02-12T07:48:26.910Z,0.9
2019-02-12T07:49:26.884Z,0.9
2019-02-12T07:50:26.832Z,0.9
2019-02-12T07:51:27.118Z,0.9
2019-02-12T07:52:27.016Z,0.9
2019-02-12T07:53:30.785Z,1.0
2019-02-12T07:54:26.920Z,1.0
2019-02-12T07:55:26.881Z,1.0
2019-02-12T07:56:26.915Z,1.0
2019-02-12T07:57:26.846Z,1.0
2019-02-12T07:58:26.921Z,0.9
2019-02-12T07:59:26.904Z,0.9
2019-02-12T08:00:26.901Z,0.9
2019-02-12T08:01:26.916Z,0.9
2019-02-12T08:02:27.138Z,0.9
2019-02-12T08:03:27.189Z,0.9
2019-02-12T08:04:27.211Z,0.9
2019-02-12T08:05:26.875Z,0.9
2019-02-12T08:06:26.931Z,0.9
2019-02-12T08:07:27.181Z,0.9
2019-02-12T08:08:27.181Z,1.0
2019-02-12T08:09:26.930Z,1.0
2019-02-12T08:10:27.043Z,1.0
2019-02-12T08:11:27.391Z,0.9
2019-02-12T08:12:27.045Z,0.9
2019-02-12T08:13:26.934Z,0.9
2019-02-12T08:14:27.042Z,0.9
2019-02-12T08:15:26.930Z,0.9
2019-02-12T08:16:27.284Z,1.0
2019-02-12T08:17:27.156Z,1.0
2019-02-12T08:18:26.915Z,1.0
2019-02-12T08:19:26.958Z,1.0
2019-02-12T08:20:27.040Z,1.0
2019-02-12T08:21:27.013Z,1.0
2019-02-12T08:22:27.181Z,1.0
2019-02-12T08:23:26.999Z,1.0
2019-02-12T08:24:27.011Z,1.0
2019-02-12T08:25:27.047Z,1.0
2019-02-12T08:26:26.967Z,1.0
2019-02-12T08:27:27.063Z,1.0
2019-02-12T08:28:26.967Z,1.1
2019-02-12T08:29:27.175Z,1.1
2019-02-12T08:30:26.951Z,1.1
2019-02-12T08:31:26.963Z,1.1
2019-02-12T08:32:26.956Z,1.1
2019-02-12T08:33:27.033Z,1.1
2019-02-12T08:34:27.084Z,1.1
2019-02-12T08:35:27.251Z,1.1
2019-02-12T08:36:27.210Z,1.1
2019-02-12T08:37:27.044Z,1.1
2019-02-12T08:38:26.943Z,1.1
2019-02-12T08:39:27.024Z,1.1
2019-02-12T08:40:27.023Z,1.1
2019-02-12T08:41:27.028Z,1.1
2019-02-12T08:42:27.044Z,1.1
2019-02-12T08:43:27.041Z,1.1
2019-02-12T08:44:27.047Z,1.1
2019-02-12T08:45:27.296Z,1.1
2019-02-12T08:46:27.037Z,1.1
2019-02-12T08:47:26.950Z,1.1
2019-02-12T08:48:27.265Z,1.1
2019-02-12T08:49:27.118Z,1.1
2019-02-12T08:50:27.057Z,1.1
2019-02-12T08:51:27.084Z,1.2
2019-02-12T08:52:27.017Z,1.2
2019-02-12T08:53:27.019Z,1.2
2019-02-12T08:54:27.958Z,1.1
2019-02-12T08:55:27.077Z,1.1
2019-02-12T08:56:27.038Z,1.1
2019-02-12T08:57:27.274Z,1.1
2019-02-12T08:58:27.356Z,1.1
2019-02-12T08:59:27.343Z,1.1
2019-02-12T09:00:27.274Z,1.1
2019-02-12T09:09:36.501Z,1.1
2019-02-12T09:09:44.783Z,1.1
2019-02-12T09:10:44.533Z,1.2
2019-02-12T09:11:44.796Z,1.1
2019-02-12T09:12:44.414Z,1.1
2019-02-12T09:13:44.733Z,1.1
2019-02-12T09:14:44.434Z,1.2
2019-02-12T09:15:44.594Z,1.2
2019-02-12T09:16:44.544Z,1.2
2019-02-12T09:17:44.524Z,1.2
2019-02-12T09:18:47.669Z,1.2
2019-02-12T09:19:44.631Z,1.2
2019-02-12T09:20:44.503Z,1.2
2019-02-12T09:21:44.707Z,1.3
2019-02-12T09:22:44.516Z,1.3
2019-02-12T09:23:44.790Z,1.3
2019-02-12T09:24:44.494Z,1.3
2019-02-12T09:25:44.545Z,1.3
2019-02-12T09:26:44.458Z,1.3
2019-02-12T09:27:44.535Z,1.3
2019-02-12T09:28:44.559Z,1.3
2019-02-12T09:29:44.545Z,1.4
2019-02-12T09:30:44.535Z,1.4
2019-02-12T09:31:44.584Z,1.4
2019-02-12T09:32:44.770Z,1.4
2019-02-12T09:33:44.614Z,1.4
2019-02-12T09:34:44.624Z,1.5
2019-02-12T09:35:45.287Z,1.5
2019-02-12T09:37:13.082Z,1.5
2019-02-12T09:37:45.332Z,1.5
2019-02-12T09:38:44.569Z,1.5
2019-02-12T09:39:44.747Z,1.6
2019-02-12T09:40:44.789Z,1.6
2019-02-12T09:41:44.600Z,1.6
2019-02-12T09:42:44.531Z,1.6
2019-02-12T09:43:44.579Z,1.6
2019-02-12T09:44:44.616Z,1.6
2019-02-12T09:45:44.621Z,1.6
2019-02-12T09:46:44.606Z,1.6
2019-02-12T09:47:45.738Z,1.5
2019-02-12T09:48:44.641Z,1.5
2019-02-12T09:49:44.511Z,1.7
2019-02-12T09:50:44.656Z,1.7
2019-02-12T09:51:44.909Z,1.7
2019-02-12T09:52:44.548Z,1.7
2019-02-12T09:53:44.581Z,1.7
2019-02-12T09:54:44.601Z,1.7
2019-02-12T09:55:44.614Z,1.7
2019-02-12T09:56:44.640Z,1.7
2019-02-12T09:57:44.585Z,1.7
2019-02-12T09:58:44.633Z,1.7
2019-02-12T09:59:44.846Z,1.7
2019-02-12T10:00:44.615Z,1.7
2019-02-12T10:01:44.613Z,1.7
2019-02-12T10:02:44.579Z,1.7
2019-02-12T10:03:44.709Z,1.7
2019-02-12T10:04:44.605Z,1.7
2019-02-12T10:05:45.050Z,1.7
2019-02-12T10:06:44.627Z,1.7
2019-02-12T10:07:44.649Z,1.7
2019-02-12T10:08:44.640Z,1.7
2019-02-12T10:09:44.608Z,1.7
2019-02-12T10:10:45.500Z,1.7
2019-02-12T10:11:44.914Z,1.7
2019-02-12T10:12:44.556Z,1.7
2019-02-12T10:13:44.864Z,1.7
2019-02-12T10:14:44.549Z,1.7
2019-02-12T10:16:00.727Z,1.7
2019-02-12T10:16:44.590Z,1.7
2019-02-12T10:17:44.519Z,1.7
2019-02-12T10:18:44.841Z,1.7
2019-02-12T10:19:44.679Z,1.7
2019-02-12T10:20:44.602Z,1.7
2019-02-12T10:21:44.583Z,1.7
2019-02-12T10:22:44.614Z,1.7
2019-02-12T10:23:44.631Z,1.7
2019-02-12T10:24:44.587Z,1.7
2019-02-12T10:25:45.524Z,1.7
2019-02-12T10:26:44.651Z,1.7
2019-02-12T10:27:44.885Z,1.7
2019-02-12T10:29:44.690Z,1.7
2019-02-12T10:30:44.753Z,1.8
2019-02-12T10:31:44.660Z,1.8
2019-02-12T10:32:44.928Z,1.8
2019-02-12T10:33:44.741Z,1.9
2019-02-12T10:34:44.564Z,1.9
2019-02-12T10:35:44.631Z,1.9
2019-02-12T10:36:44.709Z,1.9
2019-02-12T10:37:44.895Z,1.9
2019-02-12T10:38:44.947Z,1.9
2019-02-12T10:39:44.578Z,1.9
2019-02-12T10:40:44.896Z,1.9
2019-02-12T10:41:44.618Z,1.9
2019-02-12T10:42:44.720Z,1.9
2019-02-12T10:43:44.734Z,1.8
2019-02-12T10:44:44.603Z,1.8
2019-02-12T10:45:44.668Z,1.9
2019-02-12T10:46:44.727Z,1.9
2019-02-12T10:47:44.704Z,1.9
2019-02-12T10:48:44.744Z,1.9
2019-02-12T10:49:44.956Z,1.9
2019-02-12T10:50:44.880Z,1.9
2019-02-12T10:52:13.339Z,1.9
2019-02-12T10:52:44.742Z,1.9
2019-02-12T10:53:44.651Z,1.9
2019-02-12T10:54:44.657Z,1.9
2019-02-12T10:55:44.733Z,2.0
2019-02-12T10:56:44.708Z,2.0
2019-02-12T10:57:44.817Z,2.0
2019-02-12T10:58:44.947Z,2.0
2019-02-12T10:59:44.809Z,2.0
2019-02-12T11:00:44.813Z,2.0
2019-02-12T11:01:45.059Z,2.0
2019-02-12T11:02:45.221Z,2.0
2019-02-12T11:03:44.795Z,2.0
2019-02-12T11:04:44.665Z,2.0
2019-02-12T11:05:44.746Z,2.0
2019-02-12T11:06:44.818Z,2.1
2019-02-12T11:07:44.973Z,2.1
2019-02-12T11:08:45.892Z,2.1
2019-02-12T11:09:44.661Z,2.1
2019-02-12T11:10:45.113Z,2.1
2019-02-12T11:11:44.687Z,2.0
2019-02-12T11:12:44.691Z,2.0
2019-02-12T11:13:44.722Z,2.2
2019-02-12T11:14:44.765Z,2.2
2019-02-12T11:15:44.707Z,2.2
2019-02-12T11:16:44.706Z,2.3
2019-02-12T11:17:44.929Z,2.3
2019-02-12T11:18:45.033Z,2.3
2019-02-12T11:19:44.796Z,2.3
2019-02-12T11:20:44.666Z,2.3
2019-02-12T11:21:44.737Z,2.3
2019-02-12T11:22:44.727Z,2.3
2019-02-12T11:23:44.734Z,2.3
2019-02-12T11:24:45.031Z,2.3
2019-02-12T11:25:44.750Z,2.3
2019-02-12T11:26:44.886Z,2.3
2019-02-12T11:27:44.752Z,2.3
2019-02-12T11:28:45.305Z,2.2
2019-02-12T11:29:44.817Z,2.2
2019-02-12T11:30:44.910Z,2.2
2019-02-12T11:31:44.697Z,2.2
2019-02-12T11:32:45.040Z,2.2
2019-02-12T11:33:44.756Z,2.2
2019-02-12T11:34:44.736Z,2.3
2019-02-12T11:35:44.750Z,2.3
2019-02-12T11:36:44.952Z,2.1
2019-02-12T11:37:44.678Z,2.1
2019-02-12T11:38:44.741Z,2.1
2019-02-12T11:39:44.736Z,2.2
2019-02-12T11:40:44.985Z,2.2
2019-02-12T11:41:44.661Z,2.2
2019-02-12T11:42:44.798Z,2.2
2019-02-12T11:43:45.265Z,2.2
2019-02-12T11:44:44.911Z,2.2
2019-02-12T11:45:44.848Z,2.2
2019-02-12T11:46:44.823Z,2.2
2019-02-12T11:47:44.830Z,2.2
2019-02-12T11:48:45.004Z,2.2
2019-02-12T11:49:44.808Z,2.3
2019-02-12T11:50:44.771Z,2.3
2019-02-12T11:51:44.751Z,2.2
2019-02-12T11:52:45.207Z,2.2
2019-02-12T11:53:44.976Z,2.2
2019-02-12T11:54:45.772Z,2.2
2019-02-12T11:55:44.841Z,2.2
2019-02-12T11:56:44.948Z,2.3
2019-02-12T11:57:45.292Z,2.3
2019-02-12T11:58:44.753Z,2.3
2019-02-12T11:59:44.726Z,2.3
2019-02-12T12:00:44.689Z,2.3
2019-02-12T12:01:44.687Z,2.3
2019-02-12T12:02:45.071Z,2.3
2019-02-12T12:03:44.999Z,2.3
2019-02-12T12:04:44.774Z,2.3
2019-02-12T12:05:44.712Z,2.3
2019-02-12T12:06:44.742Z,2.3
2019-02-12T12:07:44.824Z,2.3
2019-02-12T12:08:44.714Z,2.3
2019-02-12T12:09:45.380Z,2.4
2019-02-12T12:10:44.678Z,2.4
2019-02-12T12:11:44.940Z,2.4
2019-02-12T12:12:44.773Z,2.6
2019-02-12T12:13:45.058Z,2.6
2019-02-12T12:14:44.853Z,2.5
2019-02-12T12:15:44.770Z,2.5
2019-02-12T12:16:44.817Z,2.5
2019-02-12T12:17:44.722Z,2.6
2019-02-12T12:18:45.000Z,2.6
2019-02-12T12:19:44.813Z,2.5
2019-02-12T12:20:44.762Z,2.5
2019-02-12T12:21:45.476Z,2.5
2019-02-12T12:22:44.964Z,2.5
2019-02-12T12:23:45.677Z,2.5
2019-02-12T12:24:51.300Z,2.5
2019-02-12T12:25:44.719Z,2.5
2019-02-12T12:26:44.729Z,2.5
2019-02-12T12:27:44.797Z,2.6
2019-02-12T12:28:44.798Z,2.6
2019-02-12T12:29:45.712Z,2.6
2019-02-12T12:30:44.974Z,2.7
2019-02-12T12:31:44.732Z,2.7
2019-02-12T12:32:45.031Z,2.7
2019-02-12T12:33:44.834Z,2.7
2019-02-12T12:34:44.769Z,2.7
2019-02-12T12:35:44.956Z,2.8
2019-02-12T12:36:45.091Z,2.8
2019-02-12T12:37:45.078Z,2.8
2019-02-12T12:38:44.884Z,2.8
2019-02-12T12:39:44.842Z,2.8
2019-02-12T12:40:44.813Z,2.8
2019-02-12T12:41:44.821Z,2.8
2019-02-12T12:42:45.113Z,2.8
2019-02-12T12:43:44.958Z,2.8
2019-02-12T12:44:44.890Z,2.8
2019-02-12T12:45:44.837Z,2.8
2019-02-12T12:46:44.813Z,2.8
2019-02-12T12:47:44.874Z,2.8
2019-02-12T12:48:44.839Z,2.8
2019-02-12T12:49:45.553Z,2.8
2019-02-12T12:50:44.822Z,2.7
2019-02-12T12:51:44.808Z,2.7
2019-02-12T12:52:44.855Z,2.6
2019-02-12T12:53:44.911Z,2.6
2019-02-12T12:54:44.874Z,2.6
2019-02-12T12:55:44.961Z,2.7
2019-02-12T12:56:44.939Z,2.7
2019-02-12T12:57:44.939Z,2.7
2019-02-12T12:58:45.226Z,2.7
2019-02-12T12:59:44.942Z,2.7
2019-02-12T13:00:44.959Z,2.7
2019-02-12T13:01:44.953Z,2.7
2019-02-12T13:02:45.256Z,2.7
2019-02-12T13:03:44.978Z,2.7
2019-02-12T13:04:44.848Z,2.7
2019-02-12T13:05:44.935Z,2.7
2019-02-12T13:06:45.769Z,2.7
2019-02-12T13:07:44.844Z,2.7
2019-02-12T13:08:45.145Z,3.1
2019-02-12T13:09:45.110Z,3.1
2019-02-12T13:10:45.471Z,3.0
2019-02-12T13:11:45.192Z,3.0
2019-02-12T13:12:44.893Z,3.0
2019-02-12T13:13:45.020Z,2.8
2019-02-12T13:14:44.932Z,2.8
2019-02-12T13:15:44.877Z,2.9
2019-02-12T13:16:45.171Z,2.9
2019-02-12T13:17:44.971Z,2.9
2019-02-12T13:18:45.297Z,2.9
2019-02-12T13:19:44.909Z,2.9
2019-02-12T13:20:44.840Z,2.8
2019-02-12T13:21:44.867Z,2.8
2019-02-12T13:22:45.099Z,2.8
2019-02-12T13:23:45.660Z,2.8
2019-02-12T13:24:44.822Z,2.8
2019-02-12T13:29:03.783Z,2.8
2019-02-12T13:29:11.744Z,2.8
2019-02-12T13:30:11.854Z,2.9
2019-02-12T13:31:11.860Z,3.0
2019-02-12T13:32:11.873Z,3.0
2019-02-12T13:33:11.959Z,3.0
2019-02-12T13:34:11.873Z,3.2
2019-02-12T13:35:12.528Z,3.2
2019-02-12T13:36:13.803Z,3.2
2019-02-12T13:37:12.986Z,3.2
2019-02-12T13:39:24.913Z,3.1
2019-02-12T13:40:24.963Z,3.1
2019-02-12T13:41:24.975Z,3.1
2019-02-12T13:42:24.975Z,3.1
2019-02-12T13:43:25.174Z,3.1
2019-02-12T13:44:24.995Z,3.2
2019-02-12T13:45:24.958Z,3.2
2019-02-12T13:46:24.988Z,3.2
2019-02-12T13:47:24.994Z,3.2
2019-02-12T13:48:24.987Z,3.2
2019-02-12T13:49:24.940Z,3.1
2019-02-12T13:50:25.022Z,3.1
2019-02-12T13:51:24.942Z,3.1
2019-02-12T13:52:25.009Z,3.1
2019-02-12T13:53:24.913Z,3.1
2019-02-12T13:54:25.238Z,3.2
2019-02-12T13:55:25.051Z,3.2
2019-02-12T13:56:24.959Z,3.1
2019-02-12T13:57:24.922Z,3.1
2019-02-12T13:58:24.936Z,3.1
2019-02-12T13:59:25.206Z,3.1
2019-02-12T14:00:25.050Z,3.1
2019-02-12T14:01:25.142Z,3.0
2019-02-12T14:02:24.970Z,3.0
2019-02-12T14:03:25.302Z,3.0
2019-02-12T14:04:25.260Z,3.0
2019-02-12T14:05:25.261Z,3.0
2019-02-12T14:06:25.147Z,3.0
2019-02-12T14:07:25.149Z,3.0
2019-02-12T14:08:24.943Z,3.0
2019-02-12T14:09:24.969Z,2.9
2019-02-12T14:10:25.056Z,2.9
2019-02-12T14:11:25.028Z,2.9
2019-02-12T14:12:25.031Z,2.9